Tryon, OK (74875)

9:11 PM CDT on September 02, 2014 (GMT -0500)
6 mi. S (Ham Radio KC5DPT) | Change Station
CLOSE
Current Station
Personal Weather Station
Location: Stillwater, OK
Elevation: 938 ft
Nearby Weather Stations

Elev 938 ft 36.02 °N, 97.05 °W | Updated 4 seconds ago

Partly Cloudy
Partly Cloudy
76.3 °F
Feels Like 77 °F
N
0.0
Wind Variable Wind from ESE
Gusts 1.0 mph

Today
High -- | Low -- °F
--% Chance of Precip.
Yesterday
High -- | Low -- °F
Precip. -- in
7:00 AM 7:54 PM
First Quarter, 57% visible
Pressure 29.94 in
Visibility 0.2 miles
Clouds
Heat Index 77 °F
Dew Point 71 °F
Humidity 84%
Rainfall 0.44 in
Snow Depth Not available.
UV Not available.
Pollen 10.50 out of 12
Air Quality Not available.
Flu Activity Not available.
METAR KCQB 030155Z AUTO 11009KT M1/4SM FG VV000 26/24 A2994 RMK AO2

More Conditions Fewer Conditions

Pressure 29.94 in
Visibility 0.2 miles
Clouds
Heat Index 77 °F
Dew Point 71 °F
Humidity 84%
Rainfall 0.44 in
Snow Depth Not available.
UV Not available.
Pollen 10.50 out of 12
Air Quality Not available.
Flu Activity Not available.
METAR KCQB 030155Z AUTO 11009KT M1/4SM FG VV000 26/24 A2994 RMK AO2

More Conditions Fewer Conditions

10-Day Weather Forecast

Almanac

Astronomy

Sep. 02, 2014 Rise Set
Actual Time 7:00 AM CDT 7:54 PM CDT
Civil Twilight 6:34 AM CDT 8:20 PM CDT
Nautical Twilight 6:03 AM CDT 8:51 PM CDT
Astronomical Twilight 5:31 AM CDT 9:22 PM CDT
Moon 2:32 PM CDT (9/2) 12:10 AM CDT (9/2)
Length of Visible Light 13h 45m
Length of Day
12h 53m
Tomorrow will be 2m 11s shorter.
First Quarter, 57% of the Moon is Illuminated
Today
First Quarter
Sep 8
Full
Sep 15
Last Quarter
Sep 24
New
Oct 1
First Quarter

Today's Extremes

State Highs State Lows

Community

WunderPhotos

Upload Photos

1,749,841 photos uploaded!

Nearby

Snow Depth

Station Depth Elevation
No new snow has been reported.

Earthquake Activity

City Distance Mag. Time & Date
Helena, Oklahoma 85 miles 3.2 3:05 AM CDT
2014-09-02
Medford, Oklahoma 76 miles 3.3 11:58 PM CDT
2014-09-01
Perry, Oklahoma 30 miles 3.1 6:46 AM CDT
2014-09-01
Jones, Oklahoma 22 miles 3.1 1:49 PM CDT
2014-08-31
Minimum magnitude displayed is 2.5.

Coastal Water Temperatures

Place Temperature
No Stations Reporting

Nearby Weather Stations